Time;durP1;ratioP1;P1;durP2;ratioP2;P2;SDS_P1;SDS_P2;PMS_P1;PMS_P2;Temp;Humidity;BMP_temperature;BMP_pressure;BME280_temperature;BME280_humidity;BME280_pressure;Samples;Min_cycle;Max_cycle;Signal;HPM_P1;HPM_P2
2023/05/22 00:03:11;;;;;;;19.95;15.23;;;;;;;14.48;76.88;100328.84;20344959;29;20264;-82
2023/05/22 00:13:13;;;;;;;16.13;14.30;;;;;;;13.79;78.99;100333.16;20343316;29;20232;-81
2023/05/22 00:23:16;;;;;;;15.02;13.45;;;;;;;13.99;77.03;100330.41;20344128;29;20633;-82
2023/05/22 00:33:18;;;;;;;17.02;15.27;;;;;;;13.81;77.48;100310.09;20343900;29;20197;-82
2023/05/22 00:43:20;;;;;;;15.48;13.88;;;;;;;13.79;76.98;100307.63;20339651;29;20630;-81
2023/05/22 00:53:24;;;;;;;17.88;15.23;;;;;;;13.83;78.01;100307.72;20340914;29;20594;-81
2023/05/22 01:03:28;;;;;;;19.70;14.38;;;;;;;13.40;77.98;100302.88;20330787;29;20505;-81
2023/05/22 01:13:45;;;;;;;20.65;16.05;;;;;;;13.70;77.52;100292.78;20337449;29;20271;-81
2023/05/22 01:24:14;;;;;;;16.70;14.90;;;;;;;13.45;76.69;100292.09;20333797;29;20216;-82
2023/05/22 01:34:18;;;;;;;20.85;17.08;;;;;;;13.96;75.85;100291.44;20337829;29;20192;-81
2023/05/22 01:44:20;;;;;;;17.67;15.77;;;;;;;13.41;76.10;100296.84;20322742;29;20216;-80
2023/05/22 01:54:31;;;;;;;22.70;16.50;;;;;;;13.61;75.92;100303.44;20336318;29;20189;-80
2023/05/22 02:04:37;;;;;;;17.38;15.57;;;;;;;13.44;76.35;100298.13;20326252;29;20228;-81
2023/05/22 02:14:42;;;;;;;22.30;18.38;;;;;;;13.74;75.86;100299.34;20321017;29;20204;-81
2023/05/22 02:24:48;;;;;;;21.08;17.30;;;;;;;13.82;74.98;100293.91;20320655;29;20221;-81
2023/05/22 02:34:52;;;;;;;19.67;17.13;;;;;;;13.57;75.70;100277.03;20345150;29;20200;-81
2023/05/22 02:44:56;;;;;;;21.60;17.17;;;;;;;13.61;74.41;100277.09;20366033;29;20212;-81
2023/05/22 02:54:58;;;;;;;18.40;16.48;;;;;;;13.06;76.20;100265.50;20363346;29;20657;-81
2023/05/22 03:05:01;;;;;;;18.90;16.70;;;;;;;13.10;76.24;100255.06;20358034;29;20275;-80
2023/05/22 03:15:04;;;;;;;20.90;17.92;;;;;;;13.28;76.24;100258.41;20331272;29;20204;-80
2023/05/22 03:25:08;;;;;;;19.55;16.75;;;;;;;13.32;76.10;100252.84;20336979;29;20220;-80
2023/05/22 03:35:14;;;;;;;23.77;18.13;;;;;;;13.30;76.10;100249.53;20332191;29;20193;-80
2023/05/22 03:45:17;;;;;;;20.75;17.67;;;;;;;13.19;76.20;100243.59;20328165;29;20252;-80
2023/05/22 03:55:19;;;;;;;18.73;16.60;;;;;;;12.45;79.50;100253.50;20342907;29;20590;-80
2023/05/22 04:05:21;;;;;;;22.98;18.58;;;;;;;12.95;77.75;100247.31;20342794;29;20284;-80
2023/05/22 04:15:24;;;;;;;22.88;19.27;;;;;;;12.92;76.44;100250.88;20324297;29;20248;-79
2023/05/22 04:25:26;;;;;;;20.90;18.65;;;;;;;13.12;77.80;100259.53;20346131;29;20689;-81
2023/05/22 04:35:29;;;;;;;24.15;21.20;;;;;;;13.41;76.66;100248.63;20344735;29;20248;-81
2023/05/22 04:45:31;;;;;;;21.58;18.02;;;;;;;12.69;80.06;100247.75;20343681;29;20283;-80
2023/05/22 04:55:34;;;;;;;23.15;20.73;;;;;;;13.48;76.81;100238.66;20313784;29;20280;-80
2023/05/22 05:05:36;;;;;;;26.95;22.30;;;;;;;13.74;68.69;100236.09;20342060;29;20224;-79
2023/05/22 05:15:39;;;;;;;24.13;21.52;;;;;;;13.46;77.52;100239.84;20315765;29;20193;-80
2023/05/22 05:25:42;;;;;;;25.40;21.95;;;;;;;13.37;78.12;100232.72;20339670;29;20221;-80
2023/05/22 05:35:44;;;;;;;27.25;20.95;;;;;;;13.54;77.21;100238.03;20339618;29;20200;-80
2023/05/22 05:45:48;;;;;;;28.13;23.58;;;;;;;13.90;76.51;100245.47;20340804;29;20287;-80
2023/05/22 05:55:50;;;;;;;26.25;23.48;;;;;;;13.86;76.78;100255.91;20339545;29;20418;-81
2023/05/22 06:05:53;;;;;;;29.00;23.88;;;;;;;13.92;77.25;100270.66;20323128;29;20272;-80
2023/05/22 06:16:15;;;;;;;27.35;22.30;;;;;;;14.35;75.99;100267.69;20318982;29;20256;-79
2023/05/22 06:26:18;;;;;;;27.48;23.75;;;;;;;14.66;75.80;100265.94;20347021;29;20233;-80
2023/05/22 06:36:21;;;;;;;29.80;24.48;;;;;;;14.27;76.90;100279.22;20351693;29;20244;-79
2023/05/22 06:46:23;;;;;;;25.48;22.73;;;;;;;14.40;75.15;100281.56;20334925;29;20216;-79
2023/05/22 06:56:31;;;;;;;26.33;22.75;;;;;;;14.47;76.01;100286.59;20332011;29;20670;-80
2023/05/22 07:06:40;;;;;;;31.85;26.05;;;;;;;15.01;75.53;100289.47;20335296;29;20573;-79
2023/05/22 07:16:43;;;;;;;27.88;24.10;;;;;;;14.56;75.82;100283.59;20328628;29;20256;-80
2023/05/22 07:26:48;;;;;;;27.83;23.77;;;;;;;15.45;72.12;100283.47;20333943;29;20280;-79
2023/05/22 07:36:52;;;;;;;29.45;23.48;;;;;;;15.43;72.72;100289.53;20328000;29;20212;-81
2023/05/22 07:46:55;;;;;;;25.17;21.20;;;;;;;15.28;71.03;100293.28;20349928;29;20224;-81
2023/05/22 07:57:02;;;;;;;27.90;22.35;;;;;;;16.05;70.16;100292.31;20312153;29;20802;-82
2023/05/22 08:07:08;;;;;;;24.52;19.77;;;;;;;15.70;69.01;100293.28;20316939;29;20525;-82
2023/05/22 08:17:11;;;;;;;24.48;20.65;;;;;;;16.62;67.86;100294.88;20329570;29;20201;-82
2023/05/22 08:27:13;;;;;;;22.73;18.45;;;;;;;16.71;64.56;100299.47;20325604;29;20220;-82
2023/05/22 08:37:15;;;;;;;22.35;17.52;;;;;;;17.60;63.98;100298.59;20322593;29;20208;-82
2023/05/22 08:47:19;;;;;;;19.25;16.75;;;;;;;17.70;61.25;100297.88;20341447;29;20606;-81
2023/05/22 08:57:24;;;;;;;20.67;18.05;;;;;;;17.49;61.35;100294.78;20342451;29;20193;-82
2023/05/22 09:07:28;;;;;;;20.27;17.33;;;;;;;17.64;60.21;100288.03;20319890;29;20299;-81
2023/05/22 09:17:31;;;;;;;22.35;17.10;;;;;;;18.26;57.76;100282.53;20335673;29;20200;-82
2023/05/22 09:27:33;;;;;;;22.73;18.50;;;;;;;18.03;59.09;100289.25;20316677;29;20224;-81
2023/05/22 09:37:36;;;;;;;22.48;16.88;;;;;;;18.64;56.08;100282.00;20322408;29;20627;-82
2023/05/22 09:47:39;;;;;;;19.75;17.58;;;;;;;18.28;57.18;100282.91;20328469;29;20224;-83
2023/05/22 09:57:43;;;;;;;22.10;18.65;;;;;;;18.87;54.43;100275.16;20351629;29;20502;-82
2023/05/22 10:07:50;;;;;;;21.08;18.65;;;;;;;19.12;52.54;100264.66;20348505;29;20232;-82
2023/05/22 10:17:53;;;;;;;22.23;18.70;;;;;;;19.04;54.57;100274.44;20329427;29;20248;-81
2023/05/22 10:27:56;;;;;;;23.63;19.50;;;;;;;19.27;52.53;100272.09;20331802;29;20229;-82
2023/05/22 10:38:19;;;;;;;24.50;18.27;;;;;;;19.18;52.20;100268.78;20333453;29;20562;-82
2023/05/22 10:48:22;;;;;;;20.77;18.67;;;;;;;19.68;50.77;100263.22;20338197;29;20261;-82
2023/05/22 10:58:26;;;;;;;25.52;22.88;;;;;;;19.85;52.92;100259.56;20351334;29;20193;-82
2023/05/22 11:08:36;;;;;;;21.67;19.42;;;;;;;19.96;51.84;100256.69;20335082;29;20637;-81
2023/05/22 11:18:38;;;;;;;21.50;19.40;;;;;;;20.21;50.31;100262.44;20334936;29;20506;-81
2023/05/22 11:28:42;;;;;;;22.65;19.90;;;;;;;21.09;49.38;100247.09;20348003;29;20216;-82
2023/05/22 11:38:44;;;;;;;22.63;20.27;;;;;;;20.44;49.71;100235.00;20313589;29;20256;-81
2023/05/22 11:48:47;;;;;;;22.23;19.98;;;;;;;20.61;51.89;100229.59;20333221;29;20216;-81
2023/05/22 11:58:50;;;;;;;21.15;18.83;;;;;;;20.72;49.36;100224.69;20343578;29;20456;-81
2023/05/22 12:08:53;;;;;;;19.17;17.17;;;;;;;19.20;50.53;100226.28;20327893;29;20221;-81
2023/05/22 12:18:56;;;;;;;20.80;18.60;;;;;;;20.29;47.90;100221.06;20322386;29;20244;-80
2023/05/22 12:28:58;;;;;;;22.85;20.45;;;;;;;20.34;51.50;100212.84;20326841;29;20311;-80
2023/05/22 12:39:00;;;;;;;27.98;24.00;;;;;;;20.53;50.01;100220.22;20339270;29;20665;-80
2023/05/22 12:49:03;;;;;;;29.63;22.80;;;;;;;21.72;49.64;100211.44;20345233;29;20225;-81
2023/05/22 12:59:05;;;;;;;30.45;25.33;;;;;;;20.97;48.57;100227.47;20323942;29;20653;-82
2023/05/22 13:09:07;;;;;;;28.05;23.98;;;;;;;20.83;50.11;100243.50;20342648;29;20232;-82
2023/05/22 13:19:09;;;;;;;25.63;22.92;;;;;;;21.60;49.23;100223.44;20339401;29;20200;-81
2023/05/22 13:29:12;;;;;;;22.73;20.23;;;;;;;21.61;49.29;100225.09;20345434;29;20276;-78
2023/05/22 13:39:14;;;;;;;23.13;20.60;;;;;;;21.73;47.14;100203.66;20338470;29;20236;-80
2023/05/22 13:49:17;;;;;;;26.00;23.40;;;;;;;21.43;48.47;100190.69;20338113;29;20289;-80
2023/05/22 13:59:19;;;;;;;24.73;22.25;;;;;;;22.35;46.55;100180.50;20335236;29;20338;-82
2023/05/22 14:09:21;;;;;;;21.85;19.23;;;;;;;21.64;47.85;100188.97;20345581;29;20232;-81
2023/05/22 14:19:24;;;;;;;21.67;19.42;;;;;;;21.76;47.02;100185.56;20324493;29;20197;-82
2023/05/22 14:29:27;;;;;;;22.83;20.42;;;;;;;21.61;45.99;100198.41;20323076;29;20224;-81
2023/05/22 14:39:29;;;;;;;22.48;20.13;;;;;;;21.20;48.08;100194.13;20351027;29;20196;-82
2023/05/22 14:49:31;;;;;;;20.38;17.90;;;;;;;20.83;46.35;100185.28;20350434;29;20291;-81
2023/05/22 14:59:33;;;;;;;20.30;17.90;;;;;;;21.39;44.44;100169.78;20351433;29;20181;-79
2023/05/22 15:09:36;;;;;;;19.85;17.75;;;;;;;21.40;45.24;100157.06;20352929;29;20284;-82
2023/05/22 15:19:38;;;;;;;17.75;15.77;;;;;;;21.07;45.30;100160.59;20350841;29;20236;-81
2023/05/22 15:29:40;;;;;;;18.27;16.23;;;;;;;20.14;46.34;100160.88;20376131;29;20228;-80
2023/05/22 15:39:43;;;;;;;15.50;13.90;;;;;;;21.13;43.64;100159.72;20359987;29;20263;-83
2023/05/22 15:49:45;;;;;;;15.15;13.65;;;;;;;21.58;42.13;100159.84;20303202;29;20259;-81
2023/05/22 15:59:49;;;;;;;14.85;13.13;;;;;;;21.67;41.88;100165.09;20375130;29;20192;-82
2023/05/22 16:09:51;;;;;;;5.30;4.90;;;;;;;20.28;39.97;100182.16;20355680;29;20225;-81
2023/05/22 16:19:53;;;;;;;9.00;5.90;;;;;;;19.48;41.87;100179.72;20362665;29;20232;-81
2023/05/22 16:29:56;;;;;;;7.28;5.65;;;;;;;18.80;44.71;100189.31;20332755;29;20216;-80
2023/05/22 16:39:58;;;;;;;8.98;5.15;;;;;;;17.65;53.26;100192.59;20330207;29;20197;-81
2023/05/22 16:50:00;;;;;;;6.18;5.57;;;;;;;17.59;57.56;100222.75;20344412;29;20224;-84
2023/05/22 17:00:04;;;;;;;6.90;6.25;;;;;;;17.31;57.44;100228.97;20323013;29;20490;-82
2023/05/22 17:10:08;;;;;;;14.10;12.52;;;;;;;17.40;57.00;100248.63;20330465;29;20296;-81
2023/05/22 17:20:11;;;;;;;14.05;11.43;;;;;;;16.82;59.09;100254.84;20344601;29;20275;-80
2023/05/22 17:30:13;;;;;;;13.57;12.00;;;;;;;16.69;61.07;100293.34;20325949;29;20276;-81
2023/05/22 17:40:16;;;;;;;13.48;11.00;;;;;;;17.07;60.03;100292.25;20342501;29;20252;-80
2023/05/22 17:50:19;;;;;;;17.25;10.82;;;;;;;16.67;59.98;100307.16;20348952;29;20236;-81
2023/05/22 18:00:22;;;;;;;10.45;9.10;;;;;;;17.01;58.90;100320.28;20345177;29;20192;-81
2023/05/22 18:10:24;;;;;;;11.35;10.07;;;;;;;17.21;59.29;100316.06;20349287;29;20542;-79
2023/05/22 18:20:26;;;;;;;12.80;11.50;;;;;;;16.68;62.60;100345.88;20343720;29;20272;-80
2023/05/22 18:30:29;;;;;;;12.60;11.27;;;;;;;16.74;63.38;100365.09;20364103;29;20577;-81
2023/05/22 18:40:31;;;;;;;11.57;9.82;;;;;;;16.70;61.04;100364.25;20354538;29;20193;-80
2023/05/22 18:50:33;;;;;;;10.55;9.55;;;;;;;17.05;58.96;100372.47;20343183;29;20224;-81
2023/05/22 19:00:37;;;;;;;12.68;11.10;;;;;;;16.46;62.63;100387.41;20358856;29;20197;-81
2023/05/22 19:10:40;;;;;;;14.20;10.98;;;;;;;16.46;63.66;100393.09;20345048;29;20220;-82
2023/05/22 19:20:43;;;;;;;17.08;11.85;;;;;;;16.50;64.17;100394.00;20351421;29;20200;-81
2023/05/22 19:30:45;;;;;;;15.13;12.80;;;;;;;16.40;65.11;100404.00;20337283;29;20221;-80
2023/05/22 19:40:48;;;;;;;16.17;14.27;;;;;;;16.01;67.33;100416.72;20340378;29;20272;-82
2023/05/22 19:50:51;;;;;;;17.23;14.43;;;;;;;16.18;66.72;100427.63;20344775;29;20247;-80
2023/05/22 20:00:53;;;;;;;18.27;16.25;;;;;;;16.38;66.21;100434.91;20352228;29;20256;-81
2023/05/22 20:10:55;;;;;;;19.48;16.08;;;;;;;16.08;67.73;100439.63;20316288;29;20240;-81
2023/05/22 20:20:58;;;;;;;19.42;16.73;;;;;;;16.35;65.98;100441.34;20347199;29;20204;-81
2023/05/22 20:31:00;;;;;;;16.55;14.85;;;;;;;16.43;66.08;100457.41;20339844;29;20292;-80
2023/05/22 20:41:05;;;;;;;15.40;12.80;;;;;;;16.17;64.12;100454.47;20342080;29;20248;-80
2023/05/22 20:51:10;;;;;;;10.75;9.52;;;;;;;15.95;60.89;100458.06;20340888;29;20225;-80
2023/05/22 21:01:12;;;;;;;10.95;8.75;;;;;;;15.87;58.30;100469.31;20339279;29;20204;-81
2023/05/22 21:11:15;;;;;;;10.20;7.47;;;;;;;16.05;56.81;100474.56;20335776;29;20296;-81
2023/05/22 21:21:20;;;;;;;7.70;5.97;;;;;;;15.67;55.30;100470.50;20337286;29;20220;-80
2023/05/22 21:31:22;;;;;;;6.05;5.45;;;;;;;15.21;55.22;100469.44;20336567;29;20236;-81
2023/05/22 21:41:26;;;;;;;7.30;5.70;;;;;;;14.59;58.88;100487.41;20339612;29;20527;-81
2023/05/22 21:51:28;;;;;;;7.40;5.93;;;;;;;14.82;57.36;100494.09;20336653;29;20220;-81
2023/05/22 22:01:30;;;;;;;7.20;5.95;;;;;;;14.69;58.86;100501.88;20335924;29;20204;-80
2023/05/22 22:11:32;;;;;;;7.53;6.15;;;;;;;14.26;60.12;100514.06;20337871;29;20232;-80
2023/05/22 22:21:35;;;;;;;12.00;6.88;;;;;;;14.30;60.54;100523.53;20337666;29;20241;-80
2023/05/22 22:31:37;;;;;;;8.20;6.05;;;;;;;13.72;61.43;100528.69;20329611;29;20225;-81
2023/05/22 22:41:39;;;;;;;6.72;6.10;;;;;;;14.38;61.67;100516.84;20347067;29;20590;-80
2023/05/22 22:51:41;;;;;;;10.90;7.20;;;;;;;13.89;61.10;100540.97;20352388;29;20220;-80
2023/05/22 23:01:43;;;;;;;9.25;7.45;;;;;;;13.56;63.29;100544.84;20347969;29;20200;-80
2023/05/22 23:11:46;;;;;;;9.52;7.65;;;;;;;13.32;64.07;100553.38;20347667;29;20359;-81
2023/05/22 23:21:48;;;;;;;8.23;7.30;;;;;;;13.12;64.59;100563.66;20347588;29;20196;-80
2023/05/22 23:31:50;;;;;;;9.18;8.25;;;;;;;12.90;65.88;100550.75;20345556;29;20271;-79
2023/05/22 23:41:55;;;;;;;9.10;8.20;;;;;;;13.24;64.23;100546.63;20342349;29;20494;-80
2023/05/22 23:51:57;;;;;;;9.95;8.15;;;;;;;13.04;64.39;100537.09;20338366;29;20303;-80
